createdAt,value
2023-03-24T00:01:26.691Z,55.50
2023-03-24T00:03:54.728Z,58.00
2023-03-24T00:06:26.846Z,64.25
2023-03-24T00:08:56.943Z,77.75
2023-03-24T00:11:25.629Z,63.25
2023-03-24T00:13:58.751Z,65.00
2023-03-24T00:16:26.881Z,69.00
2023-03-24T00:18:55.111Z,63.25
2023-03-24T00:21:25.258Z,56.75
2023-03-24T00:23:55.424Z,78.00
2023-03-24T00:26:25.651Z,67.75
2023-03-24T00:28:58.091Z,64.25
2023-03-24T00:31:26.172Z,59.75
2023-03-24T00:33:54.788Z,60.50
2023-03-24T00:36:25.956Z,58.00
2023-03-24T00:38:54.945Z,60.75
2023-03-24T00:41:25.022Z,58.00
2023-03-24T00:43:56.412Z,58.25
2023-03-24T00:46:30.610Z,68.25
2023-03-24T00:49:06.092Z,73.75
2023-03-24T00:51:41.858Z,65.50
2023-03-24T00:54:11.479Z,67.50
2023-03-24T00:56:40.822Z,57.75
2023-03-24T00:59:10.655Z,58.50
2023-03-24T01:01:41.519Z,60.50
2023-03-24T01:04:10.541Z,65.25
2023-03-24T01:06:38.716Z,54.75
2023-03-24T01:09:07.083Z,59.75
2023-03-24T01:11:38.942Z,65.25
2023-03-24T01:14:06.612Z,61.25
2023-03-24T01:16:34.023Z,60.50
2023-03-24T01:19:01.718Z,64.50
2023-03-24T01:21:29.392Z,58.50
2023-03-24T01:23:56.783Z,63.00
2023-03-24T01:26:24.229Z,68.75
2023-03-24T01:28:51.799Z,67.50
2023-03-24T01:31:19.322Z,69.50
2023-03-24T01:33:47.054Z,67.00
2023-03-24T01:36:14.670Z,66.25
2023-03-24T01:38:42.587Z,64.50
2023-03-24T01:41:10.148Z,66.00
2023-03-24T01:43:37.581Z,72.25
2023-03-24T01:46:19.973Z,66.75
2023-03-24T01:48:55.245Z,63.75
2023-03-24T01:51:27.440Z,64.25
2023-03-24T01:53:57.794Z,66.00
2023-03-24T01:56:27.330Z,67.50
2023-03-24T01:59:02.429Z,66.00
2023-03-24T02:01:32.281Z,60.00
2023-03-24T02:04:04.526Z,59.25
2023-03-24T02:06:41.401Z,66.50
2023-03-24T02:09:10.788Z,66.00
2023-03-24T02:11:40.799Z,64.25
2023-03-24T02:14:14.303Z,64.00
2023-03-24T02:16:51.045Z,60.75
2023-03-24T02:19:56.199Z,71.00
2023-03-24T02:23:12.307Z,77.75
2023-03-24T02:26:01.265Z,68.75
2023-03-24T02:28:40.531Z,80.75
2023-03-24T02:31:07.875Z,71.00
2023-03-24T02:34:12.578Z,68.75
2023-03-24T02:37:18.910Z,70.75
2023-03-24T02:39:59.274Z,61.00
2023-03-24T02:43:05.362Z,71.25
2023-03-24T02:45:37.337Z,70.25
2023-03-24T02:48:32.721Z,74.25
2023-03-24T02:51:03.007Z,63.00
2023-03-24T02:53:38.890Z,61.00
2023-03-24T02:56:13.835Z,65.00
2023-03-24T02:58:46.529Z,69.00
2023-03-24T03:01:31.658Z,77.33
2023-03-24T03:04:06.955Z,83.25
2023-03-24T03:06:40.412Z,71.00
2023-03-24T03:09:11.883Z,61.33
2023-03-24T03:11:42.858Z,63.00
2023-03-24T03:14:35.457Z,71.25
2023-03-24T03:17:09.112Z,70.00
2023-03-24T03:19:44.358Z,82.25
2023-03-24T03:22:18.003Z,73.67
2023-03-24T03:24:53.228Z,68.00
2023-03-24T03:27:27.355Z,83.00
2023-03-24T03:30:09.352Z,84.00
2023-03-24T03:32:43.384Z,79.33
2023-03-24T03:35:14.387Z,69.33
2023-03-24T03:38:19.571Z,72.67
2023-03-24T03:40:55.811Z,74.50
2023-03-24T03:43:25.890Z,77.33
2023-03-24T03:45:55.098Z,80.67
2023-03-24T03:48:26.542Z,72.00
2023-03-24T03:51:10.284Z,75.33
2023-03-24T03:54:09.219Z,69.00
2023-03-24T03:56:38.546Z,69.00
2023-03-24T03:59:07.560Z,66.50
2023-03-24T04:01:38.226Z,71.75
2023-03-24T04:04:33.360Z,64.00
2023-03-24T04:07:10.885Z,68.33
2023-03-24T04:09:49.962Z,80.67
2023-03-24T04:12:59.971Z,69.75
2023-03-24T04:15:48.888Z,84.33
2023-03-24T04:18:19.407Z,74.33
2023-03-24T04:21:13.913Z,80.33
2023-03-24T04:23:54.386Z,71.33
2023-03-24T04:27:03.085Z,77.33
2023-03-24T04:29:37.114Z,64.67
2023-03-24T04:32:41.498Z,75.67
2023-03-24T04:35:33.043Z,73.00
2023-03-24T04:38:04.873Z,76.75
2023-03-24T04:40:36.795Z,75.33
2023-03-24T04:43:09.580Z,74.67
2023-03-24T04:45:37.475Z,71.33
2023-03-24T04:48:10.041Z,78.00
2023-03-24T04:50:54.397Z,70.75
2023-03-24T04:53:22.966Z,65.50
2023-03-24T04:55:50.297Z,73.50
2023-03-24T04:58:22.235Z,81.25
2023-03-24T05:00:51.307Z,74.00
2023-03-24T05:03:19.384Z,79.25
2023-03-24T05:05:50.751Z,69.75
2023-03-24T05:08:20.109Z,81.50
2023-03-24T05:10:47.858Z,71.50
2023-03-24T05:13:16.292Z,75.25
2023-03-24T05:15:44.278Z,75.75
2023-03-24T05:18:11.906Z,76.50
2023-03-24T05:20:41.307Z,81.75
2023-03-24T05:23:08.777Z,76.75
2023-03-24T05:25:36.202Z,66.75
2023-03-24T05:28:03.792Z,71.50
2023-03-24T05:30:31.687Z,75.75
2023-03-24T05:32:59.828Z,71.75
2023-03-24T05:35:27.646Z,87.75
2023-03-24T05:37:55.297Z,80.00
2023-03-24T05:40:22.799Z,83.25
2023-03-24T05:42:51.109Z,140.00
2023-03-24T05:45:20.191Z,88.75
2023-03-24T05:47:48.499Z,80.75
2023-03-24T05:50:16.212Z,88.75
2023-03-24T05:52:46.667Z,83.75
2023-03-24T05:55:16.151Z,83.25
2023-03-24T05:57:45.876Z,69.00
2023-03-24T06:00:17.423Z,81.25
2023-03-24T06:02:46.113Z,83.75
2023-03-24T06:05:13.650Z,90.25
2023-03-24T06:07:46.467Z,85.75
2023-03-24T06:10:14.628Z,70.25
2023-03-24T06:12:45.505Z,89.75
2023-03-24T06:15:17.471Z,91.25
2023-03-24T06:17:47.777Z,86.00
2023-03-24T06:20:16.281Z,92.00
2023-03-24T06:22:45.496Z,77.00
2023-03-24T06:25:20.821Z,87.25
2023-03-24T06:27:48.878Z,82.25
2023-03-24T06:30:19.067Z,97.00
2023-03-24T06:32:47.666Z,80.00
2023-03-24T06:35:16.259Z,88.00
2023-03-24T06:37:43.996Z,88.75
2023-03-24T06:40:15.972Z,88.50
2023-03-24T06:42:43.505Z,84.25
2023-03-24T06:45:11.963Z,81.75
2023-03-24T06:47:40.856Z,75.00
2023-03-24T06:50:08.665Z,87.25
2023-03-24T06:52:36.652Z,95.00
2023-03-24T06:55:06.407Z,79.00
2023-03-24T06:57:34.171Z,82.75
2023-03-24T07:00:09.376Z,67.75
2023-03-24T07:02:38.534Z,79.25
2023-03-24T07:05:07.908Z,75.75
2023-03-24T07:10:09.157Z,62.50
2023-03-24T07:12:37.537Z,63.75
2023-03-24T07:15:05.206Z,67.50
2023-03-24T07:17:32.656Z,62.25
2023-03-24T07:20:00.102Z,63.25
2023-03-24T07:22:38.286Z,70.00
2023-03-24T07:25:06.534Z,69.00
2023-03-24T07:27:35.676Z,67.25
2023-03-24T07:30:03.114Z,70.75
2023-03-24T07:32:35.105Z,79.50
2023-03-24T07:35:02.803Z,68.25
2023-03-24T07:37:31.556Z,62.25
2023-03-24T07:39:59.314Z,69.75
2023-03-24T07:42:27.135Z,53.75
2023-03-24T07:44:54.465Z,71.00
2023-03-24T07:47:29.152Z,66.25
2023-03-24T07:49:57.078Z,75.50
2023-03-24T07:52:24.548Z,57.00
2023-03-24T07:54:53.567Z,53.25
2023-03-24T07:57:21.687Z,49.75
2023-03-24T07:59:51.241Z,46.00
2023-03-24T08:02:20.173Z,27.33
2023-03-24T08:04:53.838Z,48.25
2023-03-24T08:07:24.911Z,42.00
2023-03-24T08:09:52.467Z,38.50
2023-03-24T08:12:20.682Z,48.33
2023-03-24T08:14:48.300Z,46.67
2023-03-24T08:17:15.854Z,41.50
2023-03-24T08:19:58.449Z,43.00
2023-03-24T08:22:27.764Z,46.00
2023-03-24T08:24:55.185Z,37.00
2023-03-24T08:27:29.216Z,38.75
2023-03-24T08:29:56.796Z,38.00
2023-03-24T08:32:24.702Z,38.75
2023-03-24T08:34:52.343Z,37.75
2023-03-24T08:37:19.757Z,39.25
2023-03-24T08:39:47.655Z,33.00
2023-03-24T08:42:15.179Z,41.75
2023-03-24T08:44:42.716Z,42.00
2023-03-24T08:47:10.371Z,39.25
2023-03-24T08:49:38.186Z,39.75
2023-03-24T08:52:05.662Z,30.25
2023-03-24T08:54:33.585Z,36.00
2023-03-24T08:57:01.025Z,41.75
2023-03-24T08:59:29.285Z,43.75
2023-03-24T09:01:56.803Z,43.25
2023-03-24T09:04:25.223Z,40.50
2023-03-24T09:06:53.734Z,39.00
2023-03-24T09:09:21.252Z,36.25
2023-03-24T09:11:50.032Z,36.25
2023-03-24T09:14:17.503Z,35.75
2023-03-24T09:16:45.389Z,38.00
2023-03-24T09:19:15.651Z,40.00
2023-03-24T09:21:47.896Z,32.25
2023-03-24T09:24:15.413Z,30.25
2023-03-24T09:26:42.912Z,35.75
2023-03-24T09:29:10.384Z,36.00
2023-03-24T09:31:41.424Z,37.75
2023-03-24T09:34:08.939Z,35.00
2023-03-24T09:36:36.758Z,33.00
2023-03-24T09:39:04.240Z,33.00
2023-03-24T09:41:38.680Z,32.25
2023-03-24T09:44:21.784Z,30.75
2023-03-24T09:47:02.075Z,33.00
2023-03-24T09:49:34.816Z,31.00
2023-03-24T09:52:06.595Z,30.75
2023-03-24T09:54:41.152Z,32.25
2023-03-24T09:57:20.822Z,27.50
2023-03-24T09:59:48.953Z,33.50
2023-03-24T10:02:19.813Z,32.25
2023-03-24T10:04:48.306Z,32.00
2023-03-24T10:07:47.667Z,30.25
2023-03-24T10:10:29.941Z,32.75
2023-03-24T10:13:07.263Z,29.00
2023-03-24T10:15:55.289Z,33.25
2023-03-24T10:18:28.969Z,33.00
2023-03-24T10:21:12.167Z,32.50
2023-03-24T10:24:17.322Z,30.75
2023-03-24T10:27:34.299Z,31.75
2023-03-24T10:30:26.968Z,32.75
2023-03-24T10:32:58.429Z,31.75
2023-03-24T10:36:02.179Z,31.75
2023-03-24T10:38:35.733Z,31.50
2023-03-24T10:41:04.317Z,34.40
2023-03-24T10:43:32.429Z,29.80
2023-03-24T10:46:02.356Z,32.80
2023-03-24T10:48:51.676Z,27.80
2023-03-24T10:51:26.731Z,29.80
2023-03-24T10:54:16.943Z,29.00
2023-03-24T10:57:03.725Z,30.60
2023-03-24T10:59:37.473Z,27.80
2023-03-24T11:02:11.163Z,30.20
2023-03-24T11:04:41.783Z,28.20
2023-03-24T11:07:20.997Z,30.00
2023-03-24T11:10:11.779Z,28.40
2023-03-24T11:12:41.724Z,30.00
2023-03-24T11:15:22.497Z,29.75
2023-03-24T11:18:08.927Z,31.25
2023-03-24T11:20:39.394Z,29.75
2023-03-24T11:23:20.032Z,32.25
2023-03-24T11:26:19.120Z,28.50
2023-03-24T11:28:52.347Z,22.00
2023-03-24T11:31:30.986Z,29.75
2023-03-24T11:34:09.428Z,28.50
2023-03-24T11:36:45.287Z,31.50
2023-03-24T11:39:18.124Z,24.50
2023-03-24T11:42:02.332Z,25.50
2023-03-24T11:44:38.879Z,28.75
2023-03-24T11:47:31.745Z,28.75
2023-03-24T11:50:11.732Z,30.00
2023-03-24T11:52:49.220Z,30.50
2023-03-24T11:55:23.134Z,23.00
2023-03-24T11:57:55.501Z,26.25
2023-03-24T12:00:30.518Z,27.00
2023-03-24T12:03:18.652Z,25.50
2023-03-24T12:05:52.881Z,28.00
2023-03-24T12:09:04.738Z,27.25
2023-03-24T12:11:59.522Z,26.75
2023-03-24T12:14:47.302Z,24.25
2023-03-24T12:17:24.060Z,20.25
2023-03-24T12:20:01.150Z,18.00
2023-03-24T12:23:04.742Z,14.40
2023-03-24T12:26:00.498Z,18.60
2023-03-24T12:28:40.668Z,19.20
2023-03-24T12:31:28.953Z,21.40
2023-03-24T12:34:26.352Z,17.80
2023-03-24T12:37:15.031Z,18.60
2023-03-24T12:40:32.405Z,19.80
2023-03-24T12:43:25.062Z,18.20
2023-03-24T12:45:55.498Z,16.00
2023-03-24T12:49:10.973Z,19.00
2023-03-24T12:51:51.912Z,17.00
2023-03-24T12:54:30.164Z,17.40
2023-03-24T12:57:05.590Z,15.20
2023-03-24T12:59:53.775Z,20.40
2023-03-24T13:02:36.163Z,14.80
2023-03-24T13:05:08.725Z,13.80
2023-03-24T13:07:44.037Z,15.60
2023-03-24T13:10:18.337Z,14.00
2023-03-24T13:13:10.344Z,16.00
2023-03-24T13:15:52.453Z,17.40
2023-03-24T13:18:44.531Z,18.20
2023-03-24T13:21:18.143Z,16.00
2023-03-24T13:24:09.347Z,18.40
2023-03-24T13:26:54.351Z,16.00
2023-03-24T13:29:59.196Z,15.80
2023-03-24T13:32:35.052Z,20.00
2023-03-24T13:35:34.892Z,19.60
2023-03-24T13:38:08.366Z,18.00
2023-03-24T13:40:39.925Z,16.20
2023-03-24T13:43:17.852Z,17.20
2023-03-24T13:46:00.320Z,13.80
2023-03-24T13:48:41.977Z,14.00
2023-03-24T13:51:38.271Z,14.80
2023-03-24T13:54:23.127Z,18.60
2023-03-24T13:56:53.857Z,13.60
2023-03-24T13:59:41.741Z,15.40
2023-03-24T14:02:11.255Z,16.00
2023-03-24T14:05:01.642Z,16.80
2023-03-24T14:07:34.047Z,14.60
2023-03-24T14:10:22.753Z,19.60
2023-03-24T14:12:56.257Z,13.80
2023-03-24T14:15:34.603Z,15.80
2023-03-24T14:18:23.507Z,17.60
2023-03-24T14:20:57.623Z,19.40
2023-03-24T14:23:40.287Z,5.80
2023-03-24T14:26:34.494Z,7.00
2023-03-24T14:29:02.807Z,16.60
2023-03-24T14:31:36.695Z,13.60
2023-03-24T14:34:25.558Z,13.40
2023-03-24T14:37:03.925Z,16.80
2023-03-24T14:39:40.777Z,16.00
2023-03-24T14:42:28.731Z,13.00
2023-03-24T14:44:58.575Z,16.20
2023-03-24T14:47:29.871Z,18.40
2023-03-24T14:50:00.985Z,21.20
2023-03-24T14:52:40.011Z,16.00
2023-03-24T14:55:12.602Z,13.60
2023-03-24T14:57:43.128Z,15.00
2023-03-24T15:00:20.333Z,15.50
2023-03-24T15:02:52.246Z,18.50
2023-03-24T15:05:31.262Z,16.00
2023-03-24T15:08:22.392Z,18.00
2023-03-24T15:11:02.241Z,15.50
2023-03-24T15:13:50.008Z,20.00
2023-03-24T15:16:24.008Z,14.25
2023-03-24T15:21:41.113Z,20.50
2023-03-24T15:24:21.338Z,18.50
2023-03-24T15:26:54.350Z,18.50
2023-03-24T15:29:23.514Z,23.00
2023-03-24T15:31:51.331Z,24.00
2023-03-24T15:34:42.268Z,20.25
2023-03-24T15:37:41.627Z,24.25
2023-03-24T15:40:27.561Z,21.25
2023-03-24T15:42:57.884Z,23.50
2023-03-24T15:45:30.100Z,25.25
2023-03-24T15:48:05.808Z,26.75
2023-03-24T15:50:39.408Z,30.50
2023-03-24T15:53:23.665Z,22.50
2023-03-24T15:56:05.246Z,29.50
2023-03-24T15:58:47.615Z,26.75
2023-03-24T16:01:20.136Z,20.75
2023-03-24T16:03:48.556Z,25.50
2023-03-24T16:06:26.814Z,23.75
2023-03-24T16:08:54.328Z,20.50
2023-03-24T16:11:22.521Z,15.25
2023-03-24T16:13:54.535Z,18.75
2023-03-24T16:16:28.244Z,22.50
2023-03-24T16:18:57.036Z,24.25
2023-03-24T16:21:27.165Z,22.75
2023-03-24T16:23:58.586Z,26.50
2023-03-24T16:26:29.689Z,27.75
2023-03-24T16:29:20.165Z,24.75
2023-03-24T16:31:49.909Z,26.25
2023-03-24T16:34:19.418Z,22.25
2023-03-24T16:36:52.159Z,25.00
2023-03-24T16:39:27.984Z,24.00
2023-03-24T16:42:00.855Z,23.50
2023-03-24T16:44:28.814Z,29.75
2023-03-24T16:46:56.364Z,27.50
2023-03-24T16:49:24.385Z,25.50
2023-03-24T16:51:53.302Z,28.25
2023-03-24T16:54:25.460Z,31.25
2023-03-24T16:56:53.472Z,29.50
2023-03-24T16:59:20.886Z,29.75
2023-03-24T17:01:53.523Z,26.00
2023-03-24T17:04:25.890Z,27.75
2023-03-24T17:06:57.856Z,27.00
2023-03-24T17:09:25.851Z,26.00
2023-03-24T17:11:57.511Z,30.67
2023-03-24T17:14:32.774Z,26.33
2023-03-24T17:17:02.959Z,30.33
2023-03-24T17:19:31.272Z,33.00
2023-03-24T17:22:04.509Z,35.00
2023-03-24T17:24:36.762Z,35.50
2023-03-24T17:27:12.648Z,43.00
2023-03-24T17:29:40.935Z,48.00
2023-03-24T17:32:09.253Z,46.00
2023-03-24T17:34:38.022Z,48.25
2023-03-24T17:37:06.192Z,52.50
2023-03-24T17:39:33.567Z,50.00
2023-03-24T17:42:05.586Z,49.50
2023-03-24T17:44:34.028Z,44.00
2023-03-24T17:47:01.723Z,42.25
2023-03-24T17:49:48.960Z,45.00
2023-03-24T17:52:16.857Z,44.75
2023-03-24T17:54:45.904Z,43.75
2023-03-24T17:57:13.368Z,43.75
2023-03-24T17:59:44.470Z,39.75
2023-03-24T18:02:13.673Z,38.25
2023-03-24T18:04:41.013Z,41.00
2023-03-24T18:07:09.653Z,41.00
2023-03-24T18:09:37.996Z,41.25
2023-03-24T18:12:13.023Z,39.25
2023-03-24T18:14:40.990Z,40.00
2023-03-24T18:17:09.617Z,38.00
2023-03-24T18:19:41.712Z,36.75
2023-03-24T18:22:09.799Z,38.75
2023-03-24T18:24:37.302Z,35.00
2023-03-24T18:27:09.875Z,37.00
2023-03-24T18:29:39.615Z,37.00
2023-03-24T18:32:07.117Z,38.50
2023-03-24T18:34:36.038Z,40.25
2023-03-24T18:37:03.534Z,38.00
2023-03-24T18:39:30.933Z,36.25
2023-03-24T18:41:58.389Z,34.50
2023-03-24T18:44:25.731Z,39.50
2023-03-24T18:46:55.625Z,36.25
2023-03-24T18:49:23.091Z,33.00
2023-03-24T18:51:50.616Z,36.25
2023-03-24T18:54:18.141Z,34.00
2023-03-24T18:56:45.883Z,30.50
2023-03-24T18:59:16.285Z,35.50
2023-03-24T19:01:47.331Z,35.75
2023-03-24T19:04:15.493Z,33.00
2023-03-24T19:06:43.415Z,34.00
2023-03-24T19:09:20.255Z,32.75
2023-03-24T19:11:48.271Z,34.00
2023-03-24T19:14:16.079Z,33.75
2023-03-24T19:16:45.747Z,18.75
2023-03-24T19:19:13.203Z,33.00
2023-03-24T19:21:41.942Z,34.00
2023-03-24T19:24:09.531Z,33.75
2023-03-24T19:26:37.366Z,34.00
2023-03-24T19:29:07.115Z,38.00
2023-03-24T19:31:35.253Z,13.50
2023-03-24T19:34:02.995Z,33.50
2023-03-24T19:36:32.153Z,29.50
2023-03-24T19:39:01.959Z,39.25
2023-03-24T19:41:29.556Z,34.25
2023-03-24T19:43:57.075Z,32.75
2023-03-24T19:46:29.494Z,36.75
2023-03-24T19:48:57.092Z,33.00
2023-03-24T19:51:24.926Z,37.50
2023-03-24T19:53:53.327Z,35.00
2023-03-24T19:56:21.982Z,41.75
2023-03-24T19:58:53.246Z,39.00
2023-03-24T20:01:21.598Z,32.25
2023-03-24T20:03:49.442Z,35.75
2023-03-24T20:06:19.633Z,38.75
2023-03-24T20:08:49.579Z,36.00
2023-03-24T20:11:17.102Z,37.50
2023-03-24T20:13:48.480Z,38.00
2023-03-24T20:16:16.574Z,36.00
2023-03-24T20:18:44.185Z,37.00
2023-03-24T20:21:22.719Z,38.50
2023-03-24T20:23:51.567Z,38.25
2023-03-24T20:26:20.629Z,37.50
2023-03-24T20:28:48.381Z,39.75
2023-03-24T20:31:16.517Z,36.50
2023-03-24T20:33:44.501Z,32.75
2023-03-24T20:36:12.541Z,42.25
2023-03-24T20:38:40.074Z,37.00
2023-03-24T20:41:08.333Z,41.50
2023-03-24T20:43:37.889Z,36.50
2023-03-24T20:46:09.802Z,41.00
2023-03-24T20:48:38.570Z,39.00
2023-03-24T20:51:06.129Z,39.75
2023-03-24T20:53:35.045Z,39.00
2023-03-24T20:56:08.460Z,41.75
2023-03-24T20:58:38.133Z,42.25
2023-03-24T21:01:08.245Z,39.00
2023-03-24T21:03:36.744Z,44.25
2023-03-24T21:06:04.906Z,38.75
2023-03-24T21:08:32.515Z,38.75
2023-03-24T21:11:02.846Z,39.00
2023-03-24T21:13:37.344Z,39.25
2023-03-24T21:16:08.267Z,44.00
2023-03-24T21:18:44.056Z,39.50
2023-03-24T21:21:13.091Z,46.25
2023-03-24T21:23:41.875Z,46.00
2023-03-24T21:26:17.037Z,42.75
2023-03-24T21:28:46.072Z,40.25
2023-03-24T21:31:20.086Z,44.00
2023-03-24T21:33:48.174Z,39.50
2023-03-24T21:36:15.775Z,43.50
2023-03-24T21:38:43.805Z,44.50
2023-03-24T21:41:12.348Z,45.75
2023-03-24T21:43:41.090Z,43.00
2023-03-24T21:46:14.955Z,42.25
2023-03-24T21:48:50.196Z,42.50
2023-03-24T21:51:24.111Z,42.25
2023-03-24T21:53:55.808Z,41.50
2023-03-24T21:56:23.681Z,43.25
2023-03-24T21:58:54.759Z,42.75
2023-03-24T22:01:23.690Z,41.50
2023-03-24T22:03:54.376Z,44.50
2023-03-24T22:06:25.066Z,44.75
2023-03-24T22:08:53.283Z,43.75
2023-03-24T22:11:20.812Z,44.00
2023-03-24T22:13:53.228Z,44.25
2023-03-24T22:16:20.847Z,42.00
2023-03-24T22:18:48.364Z,39.25
2023-03-24T22:21:18.088Z,43.50
2023-03-24T22:23:46.112Z,46.00
2023-03-24T22:26:15.516Z,41.75
2023-03-24T22:28:44.919Z,43.50
2023-03-24T22:31:16.299Z,43.00
2023-03-24T22:33:44.698Z,46.50
2023-03-24T22:36:12.556Z,42.75
2023-03-24T22:38:40.556Z,42.75
2023-03-24T22:41:12.264Z,44.50
2023-03-24T22:43:42.411Z,42.25
2023-03-24T22:46:10.888Z,44.25
2023-03-24T22:48:40.464Z,44.50
2023-03-24T22:51:09.665Z,46.00
2023-03-24T22:53:40.419Z,45.00
2023-03-24T22:56:09.179Z,41.50
2023-03-24T22:58:36.574Z,43.25
2023-03-24T23:01:06.244Z,40.75
2023-03-24T23:03:35.014Z,43.00
2023-03-24T23:06:04.480Z,41.50
2023-03-24T23:08:34.156Z,42.00
2023-03-24T23:11:01.608Z,43.25
2023-03-24T23:13:30.882Z,41.75
2023-03-24T23:16:10.731Z,44.00
2023-03-24T23:18:38.684Z,40.50
2023-03-24T23:21:11.893Z,35.25
2023-03-24T23:23:40.899Z,43.00
2023-03-24T23:26:25.436Z,42.00
2023-03-24T23:28:54.346Z,47.75
2023-03-24T23:31:25.862Z,38.50
2023-03-24T23:33:56.926Z,40.75
2023-03-24T23:36:26.421Z,43.00
2023-03-24T23:38:54.793Z,40.50
2023-03-24T23:41:24.535Z,43.75
2023-03-24T23:43:53.052Z,43.25
2023-03-24T23:46:20.947Z,39.25
2023-03-24T23:48:49.271Z,41.50
2023-03-24T23:51:18.672Z,40.75
2023-03-24T23:53:46.217Z,39.25
2023-03-24T23:56:21.820Z,37.50
2023-03-24T23:58:49.457Z,39.25
